sensor_id;sensor_type;location;lat;lon;timestamp;temperature;humidity
54272;DHT22;40184;53.362;5.216;2022-08-24T00:01:15;20.90;99.90
54272;DHT22;40184;53.362;5.216;2022-08-24T00:03:43;21.30;99.90
54272;DHT22;40184;53.362;5.216;2022-08-24T00:06:13;21.00;99.90
54272;DHT22;40184;53.362;5.216;2022-08-24T00:08:39;21.00;99.90
54272;DHT22;40184;53.362;5.216;2022-08-24T00:11:06;21.10;99.90
54272;DHT22;40184;53.362;5.216;2022-08-24T00:13:32;21.60;99.90
54272;DHT22;40184;53.362;5.216;2022-08-24T00:15:59;21.00;99.90
54272;DHT22;40184;53.362;5.216;2022-08-24T00:18:25;21.40;99.90
54272;DHT22;40184;53.362;5.216;2022-08-24T00:20:52;21.10;99.90
54272;DHT22;40184;53.362;5.216;2022-08-24T00:23:17;21.40;99.90
54272;DHT22;40184;53.362;5.216;2022-08-24T00:25:43;21.00;99.90
54272;DHT22;40184;53.362;5.216;2022-08-24T00:28:09;21.40;99.90
54272;DHT22;40184;53.362;5.216;2022-08-24T00:30:35;21.40;99.90
54272;DHT22;40184;53.362;5.216;2022-08-24T00:33:00;21.00;99.90
54272;DHT22;40184;53.362;5.216;2022-08-24T00:35:27;20.90;99.90
54272;DHT22;40184;53.362;5.216;2022-08-24T00:37:53;21.30;99.90
54272;DHT22;40184;53.362;5.216;2022-08-24T00:40:33;21.10;99.90
54272;DHT22;40184;53.362;5.216;2022-08-24T00:42:59;20.80;99.90
54272;DHT22;40184;53.362;5.216;2022-08-24T00:45:30;20.90;99.90
54272;DHT22;40184;53.362;5.216;2022-08-24T00:48:00;20.90;99.90
54272;DHT22;40184;53.362;5.216;2022-08-24T00:50:42;20.80;99.90
54272;DHT22;40184;53.362;5.216;2022-08-24T00:53:12;20.80;99.90
54272;DHT22;40184;53.362;5.216;2022-08-24T00:55:58;21.30;99.90
54272;DHT22;40184;53.362;5.216;2022-08-24T00:58:39;21.20;99.90
54272;DHT22;40184;53.362;5.216;2022-08-24T01:01:07;20.90;99.90
54272;DHT22;40184;53.362;5.216;2022-08-24T01:03:35;20.70;99.90
54272;DHT22;40184;53.362;5.216;2022-08-24T01:06:02;21.40;99.90
54272;DHT22;40184;53.362;5.216;2022-08-24T01:08:29;20.80;99.90
54272;DHT22;40184;53.362;5.216;2022-08-24T01:10:59;21.30;99.90
54272;DHT22;40184;53.362;5.216;2022-08-24T01:13:25;21.20;99.90
54272;DHT22;40184;53.362;5.216;2022-08-24T01:15:53;21.10;99.90
54272;DHT22;40184;53.362;5.216;2022-08-24T01:18:21;20.90;99.90
54272;DHT22;40184;53.362;5.216;2022-08-24T01:21:27;21.40;99.90
54272;DHT22;40184;53.362;5.216;2022-08-24T01:23:57;21.20;99.90
54272;DHT22;40184;53.362;5.216;2022-08-24T01:26:27;21.00;99.90
54272;DHT22;40184;53.362;5.216;2022-08-24T01:29:01;21.10;99.90
54272;DHT22;40184;53.362;5.216;2022-08-24T01:31:27;21.20;99.90
54272;DHT22;40184;53.362;5.216;2022-08-24T01:33:54;21.60;99.90
54272;DHT22;40184;53.362;5.216;2022-08-24T01:36:46;21.60;99.90
54272;DHT22;40184;53.362;5.216;2022-08-24T01:39:20;21.20;99.90
54272;DHT22;40184;53.362;5.216;2022-08-24T01:41:47;21.50;99.90
54272;DHT22;40184;53.362;5.216;2022-08-24T01:44:14;21.70;99.90
54272;DHT22;40184;53.362;5.216;2022-08-24T01:46:48;21.10;99.90
54272;DHT22;40184;53.362;5.216;2022-08-24T01:49:15;21.30;99.90
54272;DHT22;40184;53.362;5.216;2022-08-24T01:51:41;21.50;99.90
54272;DHT22;40184;53.362;5.216;2022-08-24T01:54:08;21.40;99.90
54272;DHT22;40184;53.362;5.216;2022-08-24T01:56:35;21.30;99.90
54272;DHT22;40184;53.362;5.216;2022-08-24T01:59:02;21.10;99.90
54272;DHT22;40184;53.362;5.216;2022-08-24T02:01:31;21.50;99.90
54272;DHT22;40184;53.362;5.216;2022-08-24T02:03:59;21.40;99.90
54272;DHT22;40184;53.362;5.216;2022-08-24T02:06:27;21.50;99.90
54272;DHT22;40184;53.362;5.216;2022-08-24T02:08:52;21.10;99.90
54272;DHT22;40184;53.362;5.216;2022-08-24T02:11:18;21.70;99.90
54272;DHT22;40184;53.362;5.216;2022-08-24T02:13:44;21.60;99.90
54272;DHT22;40184;53.362;5.216;2022-08-24T02:16:09;21.60;99.90
54272;DHT22;40184;53.362;5.216;2022-08-24T02:18:36;21.30;99.90
54272;DHT22;40184;53.362;5.216;2022-08-24T02:21:06;21.50;99.90
54272;DHT22;40184;53.362;5.216;2022-08-24T02:23:34;21.80;99.90
54272;DHT22;40184;53.362;5.216;2022-08-24T02:26:01;21.90;99.90
54272;DHT22;40184;53.362;5.216;2022-08-24T02:28:27;21.40;99.90
54272;DHT22;40184;53.362;5.216;2022-08-24T02:30:54;22.00;99.90
54272;DHT22;40184;53.362;5.216;2022-08-24T02:33:20;21.60;99.90
54272;DHT22;40184;53.362;5.216;2022-08-24T02:35:48;21.40;99.90
54272;DHT22;40184;53.362;5.216;2022-08-24T02:38:14;21.90;99.90
54272;DHT22;40184;53.362;5.216;2022-08-24T02:40:39;21.70;99.90
54272;DHT22;40184;53.362;5.216;2022-08-24T02:43:05;21.50;99.90
54272;DHT22;40184;53.362;5.216;2022-08-24T02:45:32;21.30;99.90
54272;DHT22;40184;53.362;5.216;2022-08-24T02:47:57;21.80;99.90
54272;DHT22;40184;53.362;5.216;2022-08-24T02:50:23;21.70;99.90
54272;DHT22;40184;53.362;5.216;2022-08-24T02:52:51;21.50;99.90
54272;DHT22;40184;53.362;5.216;2022-08-24T02:55:17;21.40;99.90
54272;DHT22;40184;53.362;5.216;2022-08-24T02:57:43;21.80;99.90
54272;DHT22;40184;53.362;5.216;2022-08-24T03:00:13;21.60;99.90
54272;DHT22;40184;53.362;5.216;2022-08-24T03:02:39;21.80;99.90
54272;DHT22;40184;53.362;5.216;2022-08-24T03:05:06;22.00;99.90
54272;DHT22;40184;53.362;5.216;2022-08-24T03:07:32;21.80;99.90
54272;DHT22;40184;53.362;5.216;2022-08-24T03:09:57;21.50;99.90
54272;DHT22;40184;53.362;5.216;2022-08-24T03:12:23;21.80;99.90
54272;DHT22;40184;53.362;5.216;2022-08-24T03:14:49;21.60;99.90
54272;DHT22;40184;53.362;5.216;2022-08-24T03:17:14;21.50;99.90
54272;DHT22;40184;53.362;5.216;2022-08-24T03:19:40;21.30;99.90
54272;DHT22;40184;53.362;5.216;2022-08-24T03:22:07;21.20;99.90
54272;DHT22;40184;53.362;5.216;2022-08-24T03:24:32;21.30;99.90
54272;DHT22;40184;53.362;5.216;2022-08-24T03:26:59;21.10;99.90
54272;DHT22;40184;53.362;5.216;2022-08-24T03:29:25;21.30;99.90
54272;DHT22;40184;53.362;5.216;2022-08-24T03:31:52;21.00;99.90
54272;DHT22;40184;53.362;5.216;2022-08-24T03:34:17;20.90;99.90
54272;DHT22;40184;53.362;5.216;2022-08-24T03:36:44;21.20;99.90
54272;DHT22;40184;53.362;5.216;2022-08-24T03:39:13;21.20;99.90
54272;DHT22;40184;53.362;5.216;2022-08-24T03:41:39;20.90;99.90
54272;DHT22;40184;53.362;5.216;2022-08-24T03:44:05;21.20;99.90
54272;DHT22;40184;53.362;5.216;2022-08-24T03:46:34;21.20;99.90
54272;DHT22;40184;53.362;5.216;2022-08-24T03:49:03;21.30;99.90
54272;DHT22;40184;53.362;5.216;2022-08-24T03:51:29;21.40;99.90
54272;DHT22;40184;53.362;5.216;2022-08-24T03:53:56;21.60;99.90
54272;DHT22;40184;53.362;5.216;2022-08-24T03:56:23;21.00;99.90
54272;DHT22;40184;53.362;5.216;2022-08-24T03:58:49;21.60;99.90
54272;DHT22;40184;53.362;5.216;2022-08-24T04:01:16;21.50;99.90
54272;DHT22;40184;53.362;5.216;2022-08-24T04:03:43;21.10;99.90
54272;DHT22;40184;53.362;5.216;2022-08-24T04:06:10;21.30;99.90
54272;DHT22;40184;53.362;5.216;2022-08-24T04:08:36;21.40;99.90
54272;DHT22;40184;53.362;5.216;2022-08-24T04:11:02;21.30;99.90
54272;DHT22;40184;53.362;5.216;2022-08-24T04:13:31;21.30;99.90
54272;DHT22;40184;53.362;5.216;2022-08-24T04:16:03;21.50;99.90
54272;DHT22;40184;53.362;5.216;2022-08-24T04:18:29;21.50;99.90
54272;DHT22;40184;53.362;5.216;2022-08-24T04:20:55;21.50;99.90
54272;DHT22;40184;53.362;5.216;2022-08-24T04:23:21;20.90;99.90
54272;DHT22;40184;53.362;5.216;2022-08-24T04:25:47;21.30;99.90
54272;DHT22;40184;53.362;5.216;2022-08-24T04:28:15;20.90;99.90
54272;DHT22;40184;53.362;5.216;2022-08-24T04:30:47;21.40;99.90
54272;DHT22;40184;53.362;5.216;2022-08-24T04:33:15;21.10;99.90
54272;DHT22;40184;53.362;5.216;2022-08-24T04:35:44;20.80;99.90
54272;DHT22;40184;53.362;5.216;2022-08-24T04:38:10;21.40;99.90
54272;DHT22;40184;53.362;5.216;2022-08-24T04:40:44;20.90;99.90
54272;DHT22;40184;53.362;5.216;2022-08-24T04:43:11;21.00;99.90
54272;DHT22;40184;53.362;5.216;2022-08-24T04:45:39;21.30;99.90
54272;DHT22;40184;53.362;5.216;2022-08-24T04:48:05;20.90;99.90
54272;DHT22;40184;53.362;5.216;2022-08-24T04:50:36;21.00;99.90
54272;DHT22;40184;53.362;5.216;2022-08-24T04:53:03;20.80;99.90
54272;DHT22;40184;53.362;5.216;2022-08-24T04:55:30;21.40;99.90
54272;DHT22;40184;53.362;5.216;2022-08-24T04:57:56;20.80;99.90
54272;DHT22;40184;53.362;5.216;2022-08-24T05:00:22;21.40;99.90
54272;DHT22;40184;53.362;5.216;2022-08-24T05:02:47;21.40;99.90
54272;DHT22;40184;53.362;5.216;2022-08-24T05:05:13;20.80;99.90
54272;DHT22;40184;53.362;5.216;2022-08-24T05:07:40;20.80;99.90
54272;DHT22;40184;53.362;5.216;2022-08-24T05:10:07;21.30;99.90
54272;DHT22;40184;53.362;5.216;2022-08-24T05:12:33;21.50;99.90
54272;DHT22;40184;53.362;5.216;2022-08-24T05:14:59;20.90;99.90
54272;DHT22;40184;53.362;5.216;2022-08-24T05:17:25;21.20;99.90
54272;DHT22;40184;53.362;5.216;2022-08-24T05:19:52;21.20;99.90
54272;DHT22;40184;53.362;5.216;2022-08-24T05:22:18;21.20;99.90
54272;DHT22;40184;53.362;5.216;2022-08-24T05:24:43;21.40;99.90
54272;DHT22;40184;53.362;5.216;2022-08-24T05:27:09;21.00;99.90
54272;DHT22;40184;53.362;5.216;2022-08-24T05:29:35;21.40;99.90
54272;DHT22;40184;53.362;5.216;2022-08-24T05:32:02;21.20;99.90
54272;DHT22;40184;53.362;5.216;2022-08-24T05:34:27;21.50;99.90
54272;DHT22;40184;53.362;5.216;2022-08-24T05:36:53;21.30;99.90
54272;DHT22;40184;53.362;5.216;2022-08-24T05:39:19;21.50;99.90
54272;DHT22;40184;53.362;5.216;2022-08-24T05:41:45;21.50;99.90
54272;DHT22;40184;53.362;5.216;2022-08-24T05:44:13;21.60;99.90
54272;DHT22;40184;53.362;5.216;2022-08-24T05:46:39;21.50;99.90
54272;DHT22;40184;53.362;5.216;2022-08-24T05:49:05;21.80;99.90
54272;DHT22;40184;53.362;5.216;2022-08-24T05:51:33;21.70;99.90
54272;DHT22;40184;53.362;5.216;2022-08-24T05:53:59;21.80;99.90
54272;DHT22;40184;53.362;5.216;2022-08-24T05:56:25;21.40;99.90
54272;DHT22;40184;53.362;5.216;2022-08-24T05:58:51;21.50;99.90
54272;DHT22;40184;53.362;5.216;2022-08-24T06:01:21;21.60;99.90
54272;DHT22;40184;53.362;5.216;2022-08-24T06:03:48;21.70;99.90
54272;DHT22;40184;53.362;5.216;2022-08-24T06:06:15;21.90;99.90
54272;DHT22;40184;53.362;5.216;2022-08-24T06:08:43;22.00;99.90
54272;DHT22;40184;53.362;5.216;2022-08-24T06:11:43;21.50;99.90
54272;DHT22;40184;53.362;5.216;2022-08-24T06:14:12;21.90;99.90
54272;DHT22;40184;53.362;5.216;2022-08-24T06:16:41;22.20;99.90
54272;DHT22;40184;53.362;5.216;2022-08-24T06:19:08;21.70;99.90
54272;DHT22;40184;53.362;5.216;2022-08-24T06:21:34;22.30;99.90
54272;DHT22;40184;53.362;5.216;2022-08-24T06:24:03;22.30;99.90
54272;DHT22;40184;53.362;5.216;2022-08-24T06:26:29;21.70;99.90
54272;DHT22;40184;53.362;5.216;2022-08-24T06:29:13;21.80;99.90
54272;DHT22;40184;53.362;5.216;2022-08-24T06:31:41;22.20;99.90
54272;DHT22;40184;53.362;5.216;2022-08-24T06:34:12;22.20;99.90
54272;DHT22;40184;53.362;5.216;2022-08-24T06:36:38;22.00;99.90
54272;DHT22;40184;53.362;5.216;2022-08-24T06:39:05;22.30;99.90
54272;DHT22;40184;53.362;5.216;2022-08-24T06:41:30;22.20;99.90
54272;DHT22;40184;53.362;5.216;2022-08-24T06:43:56;21.90;99.90
54272;DHT22;40184;53.362;5.216;2022-08-24T06:46:22;22.40;99.90
54272;DHT22;40184;53.362;5.216;2022-08-24T06:48:48;22.20;99.90
54272;DHT22;40184;53.362;5.216;2022-08-24T06:51:17;22.30;99.90
54272;DHT22;40184;53.362;5.216;2022-08-24T06:53:44;22.60;99.90
54272;DHT22;40184;53.362;5.216;2022-08-24T06:56:10;22.30;99.90
54272;DHT22;40184;53.362;5.216;2022-08-24T06:58:37;22.40;99.90
54272;DHT22;40184;53.362;5.216;2022-08-24T07:01:17;22.40;99.90
54272;DHT22;40184;53.362;5.216;2022-08-24T07:03:44;23.10;99.90
54272;DHT22;40184;53.362;5.216;2022-08-24T07:06:11;23.20;99.90
54272;DHT22;40184;53.362;5.216;2022-08-24T07:08:39;23.10;99.90
54272;DHT22;40184;53.362;5.216;2022-08-24T07:11:07;23.40;99.90
54272;DHT22;40184;53.362;5.216;2022-08-24T07:13:33;22.90;99.90
54272;DHT22;40184;53.362;5.216;2022-08-24T07:15:59;23.20;99.90
54272;DHT22;40184;53.362;5.216;2022-08-24T07:18:25;23.30;99.90
54272;DHT22;40184;53.362;5.216;2022-08-24T07:20:51;23.50;99.90
54272;DHT22;40184;53.362;5.216;2022-08-24T07:23:17;23.40;99.90
54272;DHT22;40184;53.362;5.216;2022-08-24T07:25:44;23.60;99.90
54272;DHT22;40184;53.362;5.216;2022-08-24T07:28:11;23.80;99.90
54272;DHT22;40184;53.362;5.216;2022-08-24T07:30:38;24.00;99.90
54272;DHT22;40184;53.362;5.216;2022-08-24T07:33:04;23.70;99.90
54272;DHT22;40184;53.362;5.216;2022-08-24T07:35:30;23.60;99.90
54272;DHT22;40184;53.362;5.216;2022-08-24T07:37:59;24.10;99.90
54272;DHT22;40184;53.362;5.216;2022-08-24T07:40:26;24.30;99.90
54272;DHT22;40184;53.362;5.216;2022-08-24T07:42:54;23.80;99.90
54272;DHT22;40184;53.362;5.216;2022-08-24T07:45:20;24.00;99.90
54272;DHT22;40184;53.362;5.216;2022-08-24T07:47:50;24.30;99.90
54272;DHT22;40184;53.362;5.216;2022-08-24T07:50:16;24.50;99.90
54272;DHT22;40184;53.362;5.216;2022-08-24T07:52:42;24.30;99.90
54272;DHT22;40184;53.362;5.216;2022-08-24T07:55:09;24.60;99.90
54272;DHT22;40184;53.362;5.216;2022-08-24T07:57:36;24.30;99.90
54272;DHT22;40184;53.362;5.216;2022-08-24T08:00:08;24.20;99.90
54272;DHT22;40184;53.362;5.216;2022-08-24T08:02:36;24.40;99.90
54272;DHT22;40184;53.362;5.216;2022-08-24T08:05:03;24.70;99.90
54272;DHT22;40184;53.362;5.216;2022-08-24T08:07:29;25.00;99.90
54272;DHT22;40184;53.362;5.216;2022-08-24T08:09:55;25.00;99.90
54272;DHT22;40184;53.362;5.216;2022-08-24T08:12:21;25.10;99.90
54272;DHT22;40184;53.362;5.216;2022-08-24T08:14:46;24.90;99.90
54272;DHT22;40184;53.362;5.216;2022-08-24T08:17:13;24.90;99.90
54272;DHT22;40184;53.362;5.216;2022-08-24T08:19:39;25.10;99.90
54272;DHT22;40184;53.362;5.216;2022-08-24T08:22:07;25.40;99.90
54272;DHT22;40184;53.362;5.216;2022-08-24T08:24:51;24.90;99.90
54272;DHT22;40184;53.362;5.216;2022-08-24T08:27:17;25.40;99.90
54272;DHT22;40184;53.362;5.216;2022-08-24T08:29:43;25.10;99.90
54272;DHT22;40184;53.362;5.216;2022-08-24T08:32:10;25.30;99.90
54272;DHT22;40184;53.362;5.216;2022-08-24T08:34:42;24.90;99.90
54272;DHT22;40184;53.362;5.216;2022-08-24T08:37:08;24.90;99.90
54272;DHT22;40184;53.362;5.216;2022-08-24T08:39:34;25.30;99.90
54272;DHT22;40184;53.362;5.216;2022-08-24T08:48:05;25.40;99.90
54272;DHT22;40184;53.362;5.216;2022-08-24T08:56:26;26.00;99.90
54272;DHT22;40184;53.362;5.216;2022-08-24T09:01:48;26.20;99.90
54272;DHT22;40184;53.362;5.216;2022-08-24T09:09:50;26.30;99.90
54272;DHT22;40184;53.362;5.216;2022-08-24T09:13:42;25.70;99.90
54272;DHT22;40184;53.362;5.216;2022-08-24T09:18:29;26.30;99.90
54272;DHT22;40184;53.362;5.216;2022-08-24T09:21:28;25.90;99.90
54272;DHT22;40184;53.362;5.216;2022-08-24T09:24:20;26.30;99.90
54272;DHT22;40184;53.362;5.216;2022-08-24T09:30:17;26.10;99.90
54272;DHT22;40184;53.362;5.216;2022-08-24T09:44:42;26.60;99.90
54272;DHT22;40184;53.362;5.216;2022-08-24T09:48:15;26.80;99.90
54272;DHT22;40184;53.362;5.216;2022-08-24T10:04:18;27.50;99.90
54272;DHT22;40184;53.362;5.216;2022-08-24T10:07:06;27.20;99.90
54272;DHT22;40184;53.362;5.216;2022-08-24T10:10:03;27.70;99.90
54272;DHT22;40184;53.362;5.216;2022-08-24T10:12:56;27.90;99.90
54272;DHT22;40184;53.362;5.216;2022-08-24T10:15:35;28.30;99.90
54272;DHT22;40184;53.362;5.216;2022-08-24T10:20:48;28.10;99.90
54272;DHT22;40184;53.362;5.216;2022-08-24T10:32:00;28.60;99.90
54272;DHT22;40184;53.362;5.216;2022-08-24T10:54:33;28.30;99.90
54272;DHT22;40184;53.362;5.216;2022-08-24T11:02:35;28.50;99.90
54272;DHT22;40184;53.362;5.216;2022-08-24T11:07:31;28.50;99.90
54272;DHT22;40184;53.362;5.216;2022-08-24T11:10:00;28.60;99.90
54272;DHT22;40184;53.362;5.216;2022-08-24T11:12:42;28.80;99.90
54272;DHT22;40184;53.362;5.216;2022-08-24T11:20:44;29.10;99.90
54272;DHT22;40184;53.362;5.216;2022-08-24T11:30:48;29.40;99.90
54272;DHT22;40184;53.362;5.216;2022-08-24T11:33:34;29.70;99.90
54272;DHT22;40184;53.362;5.216;2022-08-24T11:36:18;29.70;99.90
54272;DHT22;40184;53.362;5.216;2022-08-24T11:38:44;29.70;99.90
54272;DHT22;40184;53.362;5.216;2022-08-24T11:41:15;29.80;99.90
54272;DHT22;40184;53.362;5.216;2022-08-24T11:44:04;30.00;99.90
54272;DHT22;40184;53.362;5.216;2022-08-24T11:46:39;30.00;99.90
54272;DHT22;40184;53.362;5.216;2022-08-24T11:51:53;30.10;99.90
54272;DHT22;40184;53.362;5.216;2022-08-24T11:57:15;30.00;99.90
54272;DHT22;40184;53.362;5.216;2022-08-24T12:00:05;30.10;99.90
54272;DHT22;40184;53.362;5.216;2022-08-24T12:02:59;30.20;99.90
54272;DHT22;40184;53.362;5.216;2022-08-24T12:05:39;30.10;99.90
54272;DHT22;40184;53.362;5.216;2022-08-24T12:08:20;30.10;99.90
54272;DHT22;40184;53.362;5.216;2022-08-24T12:11:12;30.00;99.90
54272;DHT22;40184;53.362;5.216;2022-08-24T12:13:52;29.90;99.90
54272;DHT22;40184;53.362;5.216;2022-08-24T12:19:18;29.50;99.90
54272;DHT22;40184;53.362;5.216;2022-08-24T12:21:47;29.40;99.90
54272;DHT22;40184;53.362;5.216;2022-08-24T12:24:30;29.00;99.90
54272;DHT22;40184;53.362;5.216;2022-08-24T12:27:11;28.90;99.90
54272;DHT22;40184;53.362;5.216;2022-08-24T12:29:44;29.20;99.90
54272;DHT22;40184;53.362;5.216;2022-08-24T12:32:16;29.10;99.90
54272;DHT22;40184;53.362;5.216;2022-08-24T12:37:43;28.90;99.90
54272;DHT22;40184;53.362;5.216;2022-08-24T12:43:04;29.20;99.90
54272;DHT22;40184;53.362;5.216;2022-08-24T12:45:33;29.30;99.90
54272;DHT22;40184;53.362;5.216;2022-08-24T12:51:36;29.30;99.90
54272;DHT22;40184;53.362;5.216;2022-08-24T12:54:03;29.40;99.90
54272;DHT22;40184;53.362;5.216;2022-08-24T13:01:59;29.80;99.90
54272;DHT22;40184;53.362;5.216;2022-08-24T13:07:08;29.90;99.90
54272;DHT22;40184;53.362;5.216;2022-08-24T13:09:38;29.90;99.90
54272;DHT22;40184;53.362;5.216;2022-08-24T13:17:46;29.60;99.90
54272;DHT22;40184;53.362;5.216;2022-08-24T13:20:23;29.50;99.90
54272;DHT22;40184;53.362;5.216;2022-08-24T13:33:43;29.90;99.90
54272;DHT22;40184;53.362;5.216;2022-08-24T13:47:11;30.90;99.90
54272;DHT22;40184;53.362;5.216;2022-08-24T13:55:31;31.70;99.90
54272;DHT22;40184;53.362;5.216;2022-08-24T14:01:37;31.60;99.90
54272;DHT22;40184;53.362;5.216;2022-08-24T14:07:13;31.60;99.90
54272;DHT22;40184;53.362;5.216;2022-08-24T14:23:29;30.70;99.90
54272;DHT22;40184;53.362;5.216;2022-08-24T14:28:42;30.70;99.90
54272;DHT22;40184;53.362;5.216;2022-08-24T14:36:57;31.20;99.90
54272;DHT22;40184;53.362;5.216;2022-08-24T14:39:29;31.50;99.90
54272;DHT22;40184;53.362;5.216;2022-08-24T14:47:45;32.50;99.50
54272;DHT22;40184;53.362;5.216;2022-08-24T14:56:13;31.90;99.50
54272;DHT22;40184;53.362;5.216;2022-08-24T15:01:42;32.60;99.10
54272;DHT22;40184;53.362;5.216;2022-08-24T15:09:50;30.20;99.90
54272;DHT22;40184;53.362;5.216;2022-08-24T15:13:01;29.50;99.90
54272;DHT22;40184;53.362;5.216;2022-08-24T15:15:59;28.90;99.90
54272;DHT22;40184;53.362;5.216;2022-08-24T15:18:30;28.50;99.90
54272;DHT22;40184;53.362;5.216;2022-08-24T15:26:53;28.70;99.90
54272;DHT22;40184;53.362;5.216;2022-08-24T15:29:23;28.80;99.90
54272;DHT22;40184;53.362;5.216;2022-08-24T15:32:09;28.60;99.90
54272;DHT22;40184;53.362;5.216;2022-08-24T15:37:37;28.10;99.90
54272;DHT22;40184;53.362;5.216;2022-08-24T15:40:20;27.70;99.90
54272;DHT22;40184;53.362;5.216;2022-08-24T15:42:47;27.20;99.90
54272;DHT22;40184;53.362;5.216;2022-08-24T15:45:13;27.00;99.90
54272;DHT22;40184;53.362;5.216;2022-08-24T15:47:40;26.70;99.90
54272;DHT22;40184;53.362;5.216;2022-08-24T15:50:32;26.50;99.90
54272;DHT22;40184;53.362;5.216;2022-08-24T15:53:20;26.40;99.90
54272;DHT22;40184;53.362;5.216;2022-08-24T15:55:49;26.20;99.90
54272;DHT22;40184;53.362;5.216;2022-08-24T16:04:01;25.90;99.90
54272;DHT22;40184;53.362;5.216;2022-08-24T16:09:03;25.60;99.90
54272;DHT22;40184;53.362;5.216;2022-08-24T16:11:41;25.30;99.90
54272;DHT22;40184;53.362;5.216;2022-08-24T16:16:56;25.10;99.90
54272;DHT22;40184;53.362;5.216;2022-08-24T16:19:28;25.30;99.90
54272;DHT22;40184;53.362;5.216;2022-08-24T16:22:03;25.30;99.90
54272;DHT22;40184;53.362;5.216;2022-08-24T16:24:36;25.20;99.90
54272;DHT22;40184;53.362;5.216;2022-08-24T16:27:15;25.10;99.90
54272;DHT22;40184;53.362;5.216;2022-08-24T16:29:42;25.20;99.90
54272;DHT22;40184;53.362;5.216;2022-08-24T16:34:47;25.30;99.90
54272;DHT22;40184;53.362;5.216;2022-08-24T16:37:14;25.20;99.90
54272;DHT22;40184;53.362;5.216;2022-08-24T16:39:40;25.10;99.90
54272;DHT22;40184;53.362;5.216;2022-08-24T16:42:11;25.10;99.90
54272;DHT22;40184;53.362;5.216;2022-08-24T16:44:41;25.20;99.90
54272;DHT22;40184;53.362;5.216;2022-08-24T16:47:08;25.00;99.90
54272;DHT22;40184;53.362;5.216;2022-08-24T16:49:36;25.00;99.90
54272;DHT22;40184;53.362;5.216;2022-08-24T16:52:02;25.20;99.90
54272;DHT22;40184;53.362;5.216;2022-08-24T16:54:29;25.20;99.90
54272;DHT22;40184;53.362;5.216;2022-08-24T16:56:57;25.20;99.90
54272;DHT22;40184;53.362;5.216;2022-08-24T16:59:27;24.90;99.90
54272;DHT22;40184;53.362;5.216;2022-08-24T17:01:54;25.10;99.90
54272;DHT22;40184;53.362;5.216;2022-08-24T17:04:20;24.90;99.90
54272;DHT22;40184;53.362;5.216;2022-08-24T17:06:46;25.10;99.90
54272;DHT22;40184;53.362;5.216;2022-08-24T17:09:16;24.80;99.90
54272;DHT22;40184;53.362;5.216;2022-08-24T17:11:41;25.00;99.90
54272;DHT22;40184;53.362;5.216;2022-08-24T17:14:08;24.90;99.90
54272;DHT22;40184;53.362;5.216;2022-08-24T17:16:34;24.90;99.90
54272;DHT22;40184;53.362;5.216;2022-08-24T17:19:02;24.70;99.90
54272;DHT22;40184;53.362;5.216;2022-08-24T17:21:30;24.60;99.90
54272;DHT22;40184;53.362;5.216;2022-08-24T17:23:56;24.60;99.90
54272;DHT22;40184;53.362;5.216;2022-08-24T17:26:22;24.40;99.90
54272;DHT22;40184;53.362;5.216;2022-08-24T17:28:50;24.60;99.90
54272;DHT22;40184;53.362;5.216;2022-08-24T17:31:16;24.50;99.90
54272;DHT22;40184;53.362;5.216;2022-08-24T17:33:42;24.60;99.90
54272;DHT22;40184;53.362;5.216;2022-08-24T17:36:08;24.40;99.90
54272;DHT22;40184;53.362;5.216;2022-08-24T17:38:41;24.50;99.90
54272;DHT22;40184;53.362;5.216;2022-08-24T17:41:07;24.10;99.90
54272;DHT22;40184;53.362;5.216;2022-08-24T17:43:33;24.40;99.90
54272;DHT22;40184;53.362;5.216;2022-08-24T17:46:00;24.10;99.90
54272;DHT22;40184;53.362;5.216;2022-08-24T17:48:27;24.40;99.90
54272;DHT22;40184;53.362;5.216;2022-08-24T17:50:53;24.20;99.90
54272;DHT22;40184;53.362;5.216;2022-08-24T17:53:19;24.00;99.90
54272;DHT22;40184;53.362;5.216;2022-08-24T17:55:45;23.80;99.90
54272;DHT22;40184;53.362;5.216;2022-08-24T17:58:12;24.20;99.90
54272;DHT22;40184;53.362;5.216;2022-08-24T18:00:39;24.30;99.90
54272;DHT22;40184;53.362;5.216;2022-08-24T18:03:04;24.00;99.90
54272;DHT22;40184;53.362;5.216;2022-08-24T18:05:31;23.80;99.90
54272;DHT22;40184;53.362;5.216;2022-08-24T18:07:58;24.10;99.90
54272;DHT22;40184;53.362;5.216;2022-08-24T18:10:29;23.70;99.90
54272;DHT22;40184;53.362;5.216;2022-08-24T18:12:57;24.20;99.90
54272;DHT22;40184;53.362;5.216;2022-08-24T18:15:23;24.00;99.90
54272;DHT22;40184;53.362;5.216;2022-08-24T18:17:51;23.70;99.90
54272;DHT22;40184;53.362;5.216;2022-08-24T18:20:25;23.80;99.90
54272;DHT22;40184;53.362;5.216;2022-08-24T18:22:52;23.70;99.90
54272;DHT22;40184;53.362;5.216;2022-08-24T18:25:19;24.10;99.90
54272;DHT22;40184;53.362;5.216;2022-08-24T18:27:46;24.00;99.90
54272;DHT22;40184;53.362;5.216;2022-08-24T18:30:25;23.90;99.90
54272;DHT22;40184;53.362;5.216;2022-08-24T18:32:52;23.60;99.90
54272;DHT22;40184;53.362;5.216;2022-08-24T18:35:18;23.60;99.90
54272;DHT22;40184;53.362;5.216;2022-08-24T18:37:43;23.50;99.90
54272;DHT22;40184;53.362;5.216;2022-08-24T18:40:10;23.80;99.90
54272;DHT22;40184;53.362;5.216;2022-08-24T18:42:37;23.40;99.90
54272;DHT22;40184;53.362;5.216;2022-08-24T18:45:06;23.40;99.90
54272;DHT22;40184;53.362;5.216;2022-08-24T18:47:32;23.90;99.90
54272;DHT22;40184;53.362;5.216;2022-08-24T18:49:58;23.60;99.90
54272;DHT22;40184;53.362;5.216;2022-08-24T18:52:24;23.80;99.90
54272;DHT22;40184;53.362;5.216;2022-08-24T18:54:51;23.70;99.90
54272;DHT22;40184;53.362;5.216;2022-08-24T18:57:18;23.10;99.90
54272;DHT22;40184;53.362;5.216;2022-08-24T18:59:44;23.20;99.90
54272;DHT22;40184;53.362;5.216;2022-08-24T19:02:13;23.50;99.90
54272;DHT22;40184;53.362;5.216;2022-08-24T19:07:47;23.00;99.90
54272;DHT22;40184;53.362;5.216;2022-08-24T19:10:18;23.10;99.90
54272;DHT22;40184;53.362;5.216;2022-08-24T19:12:50;23.20;99.90
54272;DHT22;40184;53.362;5.216;2022-08-24T19:15:17;22.90;99.90
54272;DHT22;40184;53.362;5.216;2022-08-24T19:17:43;23.40;99.90
54272;DHT22;40184;53.362;5.216;2022-08-24T19:20:10;22.80;99.90
54272;DHT22;40184;53.362;5.216;2022-08-24T19:22:40;23.20;99.90
54272;DHT22;40184;53.362;5.216;2022-08-24T19:25:13;23.20;99.90
54272;DHT22;40184;53.362;5.216;2022-08-24T19:27:40;23.20;99.90
54272;DHT22;40184;53.362;5.216;2022-08-24T19:30:06;23.30;99.90
54272;DHT22;40184;53.362;5.216;2022-08-24T19:32:32;22.80;99.90
54272;DHT22;40184;53.362;5.216;2022-08-24T19:35:04;23.20;99.90
54272;DHT22;40184;53.362;5.216;2022-08-24T19:37:30;22.90;99.90
54272;DHT22;40184;53.362;5.216;2022-08-24T19:39:56;23.20;99.90
54272;DHT22;40184;53.362;5.216;2022-08-24T19:42:22;22.70;99.90
54272;DHT22;40184;53.362;5.216;2022-08-24T19:44:48;23.20;99.90